Eberle, Kentucky
Current Conditions -  °F | °C
As of 8:35 PM on Tuesday 27 Jan 2015 (Local Time) from KI39 Reporting Station
Clear Clear  
Wind Chill: 27°   Ceiling: Unl
Heat Index: 27°   Visibility: 10mi
Dew Point: 16°   Wind: 3mph
Humidity: 64%   Direction: 340°NNW
Pressure: 30.17"   Gusts: NA
Location:  37.4446°N, 84.0227°W
Report Text: KI39 280135Z AUTO 34003KT 10SM CLR M03/M09 A3017 RMK AO2
Loading
Personal Weather Stations






























Interactive Weather Map New forecast layout! Learn more

10-Day Weather Forecast

Advertisements
Track Severe Weather on mobile